createdAt,value
2023-05-19T00:01:00.858Z,9.90
2023-05-19T00:03:28.240Z,9.90
2023-05-19T00:06:01.523Z,9.80
2023-05-19T00:08:31.946Z,9.70
2023-05-19T00:11:00.117Z,9.80
2023-05-19T00:13:30.123Z,9.90
2023-05-19T00:15:57.394Z,9.80
2023-05-19T00:18:26.554Z,9.80
2023-05-19T00:20:54.525Z,9.80
2023-05-19T00:23:22.904Z,9.70
2023-05-19T00:25:52.296Z,9.70
2023-05-19T00:28:20.799Z,9.80
2023-05-19T00:30:51.087Z,9.80
2023-05-19T00:33:17.995Z,9.70
2023-05-19T00:35:45.500Z,9.80
2023-05-19T00:38:12.617Z,9.80
2023-05-19T00:40:40.688Z,9.80
2023-05-19T00:43:09.495Z,9.80
2023-05-19T00:45:37.004Z,9.80
2023-05-19T00:48:06.630Z,9.80
2023-05-19T00:50:34.248Z,9.70
2023-05-19T00:53:02.886Z,9.70
2023-05-19T00:55:31.735Z,9.80
2023-05-19T00:58:01.457Z,9.90
2023-05-19T01:00:33.246Z,9.90
2023-05-19T01:03:01.709Z,9.80
2023-05-19T01:05:28.690Z,9.80
2023-05-19T01:07:56.576Z,9.80
2023-05-19T01:10:23.597Z,9.80
2023-05-19T01:12:50.435Z,9.80
2023-05-19T01:15:17.749Z,9.80
2023-05-19T01:18:14.119Z,9.70
2023-05-19T01:20:52.657Z,9.70
2023-05-19T01:23:40.832Z,9.70
2023-05-19T01:26:45.107Z,9.70
2023-05-19T01:29:29.398Z,9.70
2023-05-19T01:32:00.148Z,9.50
2023-05-19T01:34:29.464Z,9.40
2023-05-19T01:36:58.379Z,9.40
2023-05-19T01:39:26.035Z,9.40
2023-05-19T01:41:54.863Z,9.40
2023-05-19T01:44:23.232Z,9.50
2023-05-19T01:46:50.915Z,9.40
2023-05-19T01:49:17.938Z,9.40
2023-05-19T01:51:45.330Z,9.40
2023-05-19T01:54:12.271Z,9.30
2023-05-19T01:57:02.776Z,9.30
2023-05-19T02:00:07.915Z,9.40
2023-05-19T07:16:47.097Z,12.60
2023-05-19T07:19:14.451Z,12.90
2023-05-19T07:21:42.487Z,12.80
2023-05-19T07:24:09.531Z,12.90
2023-05-19T07:26:36.499Z,13.10
2023-05-19T07:38:04.474Z,13.00
2023-05-19T07:40:49.953Z,13.30
2023-05-19T07:43:16.906Z,13.50
2023-05-19T07:45:43.989Z,13.80
2023-05-19T07:48:11.086Z,13.70
2023-05-19T07:50:38.076Z,13.80
2023-05-19T07:53:05.057Z,14.00
2023-05-19T07:55:34.871Z,14.20
2023-05-19T07:58:01.798Z,14.00
2023-05-19T08:00:28.797Z,14.00
2023-05-19T08:02:57.003Z,14.10
2023-05-19T08:05:25.962Z,14.10
2023-05-19T08:07:52.898Z,14.10
2023-05-19T08:10:19.805Z,14.10
2023-05-19T08:12:46.911Z,14.20
2023-05-19T08:15:13.926Z,14.10
2023-05-19T08:17:40.817Z,13.90
2023-05-19T08:20:10.204Z,13.90
2023-05-19T08:22:37.150Z,14.00
2023-05-19T08:25:05.521Z,13.90
2023-05-19T08:27:33.226Z,13.90
2023-05-19T08:30:00.239Z,13.90
2023-05-19T08:32:27.330Z,13.90
2023-05-19T08:34:54.273Z,14.10
2023-05-19T08:37:21.263Z,14.00
2023-05-19T08:39:48.314Z,14.00
2023-05-19T08:42:15.407Z,14.10
2023-05-19T08:44:43.982Z,14.30
2023-05-19T08:47:14.380Z,14.40
2023-05-19T08:49:52.501Z,14.40
2023-05-19T08:52:28.386Z,14.40
2023-05-19T09:02:55.043Z,15.20
2023-05-19T09:05:27.554Z,15.30
2023-05-19T09:07:55.119Z,15.20
2023-05-19T09:10:22.630Z,15.10
2023-05-19T09:13:41.039Z,15.00
2023-05-19T09:16:08.585Z,15.00
2023-05-19T09:18:40.681Z,15.10
2023-05-19T09:21:10.287Z,15.10
2023-05-19T09:23:37.469Z,15.10
2023-05-19T09:26:08.520Z,15.10
2023-05-19T09:28:38.045Z,15.20
2023-05-19T09:31:07.361Z,15.20
2023-05-19T09:33:45.920Z,15.30
2023-05-19T09:36:14.237Z,15.50
2023-05-19T09:38:41.538Z,15.80
2023-05-19T09:41:09.249Z,16.10
2023-05-19T09:50:33.902Z,16.40
2023-05-19T09:53:01.882Z,16.40
2023-05-19T09:55:33.311Z,16.50
2023-05-19T09:58:47.488Z,16.70
2023-05-19T10:01:41.328Z,17.10
2023-05-19T10:04:09.052Z,17.00
2023-05-19T10:11:04.048Z,16.70
2023-05-19T10:17:50.202Z,17.30
2023-05-19T10:20:17.909Z,17.20
2023-05-19T10:30:58.078Z,17.40
2023-05-19T10:33:53.569Z,17.50
2023-05-19T10:39:32.270Z,17.60
2023-05-19T10:42:38.254Z,17.50
2023-05-19T10:45:17.068Z,17.30
2023-05-19T10:47:49.028Z,17.30
2023-05-19T10:50:17.773Z,17.60
2023-05-19T10:52:58.124Z,17.80
2023-05-19T10:56:04.589Z,18.00
2023-05-19T10:58:49.517Z,18.20
2023-05-19T11:01:21.402Z,17.90
2023-05-19T11:03:59.595Z,17.90
2023-05-19T11:06:39.745Z,17.80
2023-05-19T11:09:15.900Z,17.80
2023-05-19T11:12:04.360Z,17.70
2023-05-19T11:14:35.612Z,17.60
2023-05-19T11:17:02.898Z,17.40
2023-05-19T11:19:35.246Z,17.60
2023-05-19T11:24:55.662Z,17.60
2023-05-19T11:27:33.436Z,17.40
2023-05-19T11:30:15.191Z,17.50
2023-05-19T11:32:44.023Z,17.40
2023-05-19T11:35:11.183Z,17.50
2023-05-19T11:37:40.536Z,17.80
2023-05-19T11:40:08.325Z,18.00
2023-05-19T11:42:36.994Z,18.40
2023-05-19T11:45:07.358Z,18.60
2023-05-19T11:47:46.026Z,18.70
2023-05-19T11:50:21.471Z,18.80
2023-05-19T11:52:49.627Z,18.70
2023-05-19T11:55:17.635Z,18.70
2023-05-19T11:58:04.970Z,18.70
2023-05-19T12:00:40.002Z,18.50
2023-05-19T12:03:08.728Z,18.40
2023-05-19T12:05:45.487Z,18.50
2023-05-19T12:08:13.025Z,18.60
2023-05-19T12:10:41.098Z,18.80
2023-05-19T12:13:11.461Z,18.80
2023-05-19T12:15:39.036Z,18.70
2023-05-19T12:18:06.718Z,18.90
2023-05-19T12:20:35.966Z,18.90
2023-05-19T12:23:03.676Z,19.10
2023-05-19T12:25:31.992Z,19.00
2023-05-19T12:28:04.573Z,18.90
2023-05-19T12:30:33.228Z,18.70
2023-05-19T12:33:02.833Z,18.60
2023-05-19T12:35:33.337Z,18.80
2023-05-19T12:38:06.314Z,19.00
2023-05-19T12:40:37.753Z,19.20
2023-05-19T12:43:06.940Z,19.40
2023-05-19T12:45:37.358Z,19.30
2023-05-19T12:48:16.234Z,19.20
2023-05-19T12:50:45.119Z,19.00
2023-05-19T12:53:13.016Z,18.90
2023-05-19T12:55:44.584Z,18.80
2023-05-19T12:58:12.484Z,18.70
2023-05-19T13:00:45.203Z,18.80
2023-05-19T13:03:16.920Z,18.70
2023-05-19T13:05:47.119Z,18.70
2023-05-19T13:08:16.212Z,20.30
2023-05-19T13:10:44.081Z,19.00
2023-05-19T13:13:13.498Z,19.20
2023-05-19T13:15:51.028Z,19.30
2023-05-19T13:18:19.587Z,19.30
2023-05-19T13:20:47.451Z,19.40
2023-05-19T13:23:15.146Z,19.50
2023-05-19T13:25:43.806Z,19.50
2023-05-19T13:28:11.276Z,19.40
2023-05-19T13:30:40.140Z,19.10
2023-05-19T13:33:07.607Z,19.60
2023-05-19T13:35:37.847Z,19.60
2023-05-19T13:38:10.084Z,19.60
2023-05-19T13:40:38.197Z,19.60
2023-05-19T13:43:06.269Z,19.50
2023-05-19T13:45:34.819Z,19.70
2023-05-19T13:48:01.851Z,19.60
2023-05-19T13:50:28.943Z,19.70
2023-05-19T13:52:55.932Z,19.80
2023-05-19T13:55:23.701Z,19.70
2023-05-19T13:57:50.962Z,19.60
2023-05-19T14:00:20.014Z,19.50
2023-05-19T14:02:47.250Z,19.40
2023-05-19T14:05:14.577Z,19.40
2023-05-19T14:07:42.409Z,19.30
2023-05-19T14:10:09.879Z,19.40
2023-05-19T14:12:55.184Z,19.50
2023-05-19T14:15:26.148Z,19.60
2023-05-19T14:17:53.846Z,19.70
2023-05-19T14:20:21.015Z,19.60
2023-05-19T14:22:47.996Z,19.20
2023-05-19T14:25:14.933Z,19.20
2023-05-19T14:27:41.838Z,19.10
2023-05-19T14:30:09.287Z,19.20
2023-05-19T14:32:55.017Z,19.20
2023-05-19T14:35:23.046Z,19.30
2023-05-19T14:37:50.792Z,19.40
2023-05-19T14:40:19.125Z,19.30
2023-05-19T14:42:46.115Z,19.10
2023-05-19T14:45:13.550Z,19.10
2023-05-19T14:47:40.731Z,19.10
2023-05-19T14:50:07.904Z,19.00
2023-05-19T14:52:35.114Z,18.90
2023-05-19T14:55:02.113Z,18.90
2023-05-19T14:57:29.014Z,18.90
2023-05-19T14:59:56.080Z,18.80
2023-05-19T15:02:23.914Z,18.80
2023-05-19T15:04:50.890Z,18.80
2023-05-19T15:07:17.929Z,18.90
2023-05-19T15:09:44.919Z,19.40
2023-05-19T15:12:11.823Z,19.00
2023-05-19T15:14:38.879Z,18.90
2023-05-19T15:17:05.842Z,18.90
2023-05-19T15:19:33.999Z,19.00
2023-05-19T15:22:01.326Z,19.00
2023-05-19T15:24:28.321Z,18.90
2023-05-19T15:26:56.078Z,19.00
2023-05-19T15:29:22.933Z,18.90
2023-05-19T15:31:53.211Z,18.80
2023-05-19T15:34:20.846Z,18.80
2023-05-19T15:36:48.548Z,18.80
2023-05-19T15:39:16.144Z,18.70
2023-05-19T15:41:43.104Z,18.60
2023-05-19T15:44:10.298Z,18.60
2023-05-19T15:46:37.302Z,18.60
2023-05-19T15:49:04.281Z,18.60
2023-05-19T15:51:31.663Z,18.60
2023-05-19T15:53:58.612Z,18.60
2023-05-19T15:56:25.959Z,18.60
2023-05-19T15:58:52.953Z,18.60
2023-05-19T16:01:20.146Z,18.60
2023-05-19T16:03:47.508Z,18.60
2023-05-19T16:06:14.629Z,18.60
2023-05-19T16:08:41.549Z,18.40
2023-05-19T16:11:08.556Z,18.40
2023-05-19T16:13:35.700Z,18.40
2023-05-19T16:16:02.875Z,18.40
2023-05-19T16:18:29.895Z,18.40
2023-05-19T16:20:57.095Z,18.40
2023-05-19T16:23:24.814Z,18.30
2023-05-19T16:25:52.363Z,18.30
2023-05-19T16:28:19.503Z,18.30
2023-05-19T16:30:46.609Z,18.30
2023-05-19T16:33:14.654Z,18.30
2023-05-19T16:35:41.862Z,18.20
2023-05-19T16:38:08.757Z,18.20
2023-05-19T16:40:36.093Z,18.20
2023-05-19T16:43:03.628Z,18.10
2023-05-19T16:45:30.616Z,18.10
2023-05-19T16:47:57.646Z,18.00
2023-05-19T16:50:27.538Z,18.00
2023-05-19T16:52:54.448Z,18.00
2023-05-19T16:55:22.849Z,18.00
2023-05-19T16:57:50.088Z,17.90
2023-05-19T17:00:17.247Z,17.90
2023-05-19T17:02:46.145Z,17.80
2023-05-19T17:05:13.191Z,17.80
2023-05-19T17:07:40.133Z,17.80
2023-05-19T17:10:07.544Z,17.80
2023-05-19T17:12:34.512Z,17.80
2023-05-19T17:15:01.524Z,17.70
2023-05-19T17:17:28.680Z,17.70
2023-05-19T17:19:55.783Z,17.70
2023-05-19T17:22:22.684Z,17.60
2023-05-19T17:24:49.652Z,17.60
2023-05-19T17:27:17.238Z,17.60
2023-05-19T17:29:44.251Z,17.50
2023-05-19T17:32:11.719Z,17.50
2023-05-19T17:34:39.293Z,17.40
2023-05-19T17:37:07.278Z,17.40
2023-05-19T17:39:34.167Z,17.30
2023-05-19T17:42:02.718Z,17.30
2023-05-19T17:44:32.916Z,17.20
2023-05-19T17:47:01.608Z,17.10
2023-05-19T17:49:28.737Z,17.10
2023-05-19T17:51:56.169Z,17.00
2023-05-19T17:54:26.224Z,17.00
2023-05-19T17:56:59.247Z,17.00
2023-05-19T17:59:30.504Z,16.90
2023-05-19T18:01:58.659Z,16.90
2023-05-19T18:04:27.064Z,16.80
2023-05-19T18:07:14.481Z,16.80
2023-05-19T18:09:47.342Z,16.70
2023-05-19T18:12:14.784Z,16.60
2023-05-19T18:14:42.205Z,16.60
2023-05-19T18:17:09.733Z,16.50
2023-05-19T18:19:37.500Z,16.50
2023-05-19T18:22:05.247Z,16.40
2023-05-19T18:24:32.971Z,16.50
2023-05-19T18:27:01.121Z,16.40
2023-05-19T18:29:28.579Z,16.30
2023-05-19T18:31:56.262Z,16.20
2023-05-19T18:34:25.097Z,16.20
2023-05-19T18:36:53.404Z,16.00
2023-05-19T18:39:21.167Z,15.90
2023-05-19T18:41:49.079Z,15.80
2023-05-19T18:44:17.502Z,15.70
2023-05-19T18:46:46.688Z,15.60
2023-05-19T18:49:14.414Z,15.50
2023-05-19T18:51:43.739Z,15.50
2023-05-19T18:54:13.113Z,15.40
2023-05-19T18:57:05.072Z,15.30
2023-05-19T18:59:33.959Z,15.20
2023-05-19T19:02:02.535Z,15.10
2023-05-19T19:04:30.215Z,15.00
2023-05-19T19:06:57.906Z,15.10
2023-05-19T19:09:28.740Z,15.00
2023-05-19T19:11:56.584Z,15.00
2023-05-19T19:17:06.293Z,14.80
2023-05-19T19:19:39.527Z,14.70
2023-05-19T19:22:07.231Z,14.60
2023-05-19T19:24:34.840Z,14.60
2023-05-19T19:27:02.716Z,14.50
2023-05-19T19:29:30.657Z,14.50
2023-05-19T19:32:01.120Z,14.40
2023-05-19T19:34:29.016Z,14.20
2023-05-19T19:36:57.939Z,14.10
2023-05-19T19:39:26.076Z,14.00
2023-05-19T19:41:57.355Z,14.00
2023-05-19T19:44:25.203Z,13.90
2023-05-19T19:46:53.030Z,13.90
2023-05-19T19:49:20.772Z,13.90
2023-05-19T19:51:48.428Z,13.80
2023-05-19T19:54:16.268Z,13.70
2023-05-19T19:56:43.890Z,13.70
2023-05-19T19:59:13.687Z,13.70
2023-05-19T20:01:41.525Z,13.70
2023-05-19T20:04:09.422Z,13.70
2023-05-19T20:06:39.123Z,13.70
2023-05-19T20:09:07.653Z,13.60
2023-05-19T20:11:36.538Z,13.50
2023-05-19T20:14:05.243Z,13.50
2023-05-19T20:16:32.974Z,13.50
2023-05-19T20:19:02.187Z,13.40
2023-05-19T20:21:29.914Z,13.30
2023-05-19T20:23:58.551Z,13.30
2023-05-19T20:26:26.204Z,13.20
2023-05-19T20:28:53.814Z,13.20
2023-05-19T20:31:22.641Z,13.20
2023-05-19T20:33:53.746Z,13.10
2023-05-19T20:36:21.580Z,13.00
2023-05-19T20:38:49.624Z,13.10
2023-05-19T20:41:17.256Z,13.00
2023-05-19T20:43:44.774Z,13.00
2023-05-19T20:46:12.510Z,13.00
2023-05-19T20:48:41.109Z,12.90
2023-05-19T20:51:08.527Z,12.90
2023-05-19T20:53:36.791Z,12.90
2023-05-19T20:56:05.543Z,12.90
2023-05-19T20:58:35.778Z,12.80
2023-05-19T21:01:05.124Z,12.80
2023-05-19T21:03:33.352Z,12.80
2023-05-19T21:06:03.804Z,12.80
2023-05-19T21:08:30.847Z,12.80
2023-05-19T21:10:57.934Z,12.70
2023-05-19T21:13:24.893Z,12.70
2023-05-19T21:15:52.109Z,12.60
2023-05-19T21:18:18.997Z,12.60
2023-05-19T21:20:46.354Z,12.60
2023-05-19T21:23:13.494Z,12.60
2023-05-19T21:25:40.810Z,12.60
2023-05-19T21:28:07.794Z,12.60
2023-05-19T21:30:36.074Z,12.50
2023-05-19T21:33:04.804Z,12.40
2023-05-19T21:35:31.768Z,12.40
2023-05-19T21:38:00.672Z,12.50
2023-05-19T21:40:33.806Z,12.40
2023-05-19T21:43:02.119Z,12.40
2023-05-19T21:45:29.277Z,12.30
2023-05-19T21:47:56.345Z,12.40
2023-05-19T21:50:23.387Z,12.40
2023-05-19T21:52:50.316Z,12.30
2023-05-19T21:55:17.270Z,12.30
2023-05-19T21:57:44.173Z,12.30
2023-05-19T22:00:14.147Z,12.20
2023-05-19T22:02:41.149Z,12.10
2023-05-19T22:05:09.427Z,12.10
2023-05-19T22:07:37.871Z,12.10
2023-05-19T22:10:06.441Z,12.10
2023-05-19T22:12:33.395Z,12.20
2023-05-19T22:15:02.808Z,12.10
2023-05-19T22:17:30.766Z,12.00
2023-05-19T22:19:58.895Z,12.00
2023-05-19T22:22:25.883Z,12.00
2023-05-19T22:24:52.960Z,11.90
2023-05-19T22:27:21.089Z,11.90
2023-05-19T22:29:48.154Z,11.90
2023-05-19T22:32:18.329Z,11.90
2023-05-19T22:34:46.724Z,11.90
2023-05-19T22:37:13.714Z,11.90
2023-05-19T22:39:41.852Z,11.90
2023-05-19T22:42:08.895Z,12.00
2023-05-19T22:44:36.918Z,11.90
2023-05-19T22:47:04.039Z,11.90
2023-05-19T22:49:31.045Z,11.90
2023-05-19T22:51:58.014Z,11.80
2023-05-19T22:54:24.926Z,11.80
2023-05-19T22:56:52.688Z,11.70
2023-05-19T22:59:21.618Z,11.60
2023-05-19T23:01:48.616Z,11.60
2023-05-19T23:04:16.598Z,11.60
2023-05-19T23:06:43.583Z,11.60
2023-05-19T23:09:10.640Z,11.60
2023-05-19T23:11:38.580Z,11.60
2023-05-19T23:14:05.762Z,11.50
2023-05-19T23:16:37.129Z,11.50
2023-05-19T23:19:08.711Z,11.50
2023-05-19T23:21:39.606Z,11.40
2023-05-19T23:24:14.221Z,11.40
2023-05-19T23:26:48.336Z,11.30
2023-05-19T23:29:16.473Z,11.30
2023-05-19T23:31:45.648Z,11.30
2023-05-19T23:34:15.810Z,11.20
2023-05-19T23:36:50.150Z,11.30
2023-05-19T23:39:21.086Z,11.40
2023-05-19T23:41:50.703Z,11.30
2023-05-19T23:44:21.935Z,11.30
2023-05-19T23:46:54.048Z,11.20
2023-05-19T23:49:22.708Z,11.20
2023-05-19T23:51:54.146Z,11.20
2023-05-19T23:54:24.920Z,11.10
2023-05-19T23:56:58.054Z,11.10
2023-05-19T23:59:28.935Z,11.10
